sensor_id;sensor_type;location;lat;lon;timestamp;P1;durP1;ratioP1;P2;durP2;ratioP2
47758;SDS011;33520;55.122;35.582;2023-09-19T00:00:17;15.13;;;8.88;;
47758;SDS011;33520;55.122;35.582;2023-09-19T00:02:46;15.07;;;9.45;;
47758;SDS011;33520;55.122;35.582;2023-09-19T00:05:18;18.90;;;10.55;;
47758;SDS011;33520;55.122;35.582;2023-09-19T00:07:44;15.52;;;9.60;;
47758;SDS011;33520;55.122;35.582;2023-09-19T00:10:11;14.95;;;10.13;;
47758;SDS011;33520;55.122;35.582;2023-09-19T00:12:42;16.10;;;9.15;;
47758;SDS011;33520;55.122;35.582;2023-09-19T00:15:09;15.25;;;10.27;;
47758;SDS011;33520;55.122;35.582;2023-09-19T00:17:36;14.63;;;9.23;;
47758;SDS011;33520;55.122;35.582;2023-09-19T00:22:41;17.58;;;10.13;;
47758;SDS011;33520;55.122;35.582;2023-09-19T00:25:11;15.20;;;9.25;;
47758;SDS011;33520;55.122;35.582;2023-09-19T00:27:40;17.45;;;10.45;;
47758;SDS011;33520;55.122;35.582;2023-09-19T00:30:08;16.25;;;9.13;;
47758;SDS011;33520;55.122;35.582;2023-09-19T00:32:50;21.92;;;11.10;;
47758;SDS011;33520;55.122;35.582;2023-09-19T00:35:21;20.27;;;12.32;;
47758;SDS011;33520;55.122;35.582;2023-09-19T00:37:50;19.67;;;11.55;;
47758;SDS011;33520;55.122;35.582;2023-09-19T00:40:17;18.95;;;11.43;;
47758;SDS011;33520;55.122;35.582;2023-09-19T00:42:44;21.20;;;11.88;;
47758;SDS011;33520;55.122;35.582;2023-09-19T00:45:12;23.15;;;12.90;;
47758;SDS011;33520;55.122;35.582;2023-09-19T00:47:41;21.48;;;12.70;;
47758;SDS011;33520;55.122;35.582;2023-09-19T00:50:11;21.30;;;12.65;;
47758;SDS011;33520;55.122;35.582;2023-09-19T00:52:40;20.00;;;11.98;;
47758;SDS011;33520;55.122;35.582;2023-09-19T00:55:10;21.13;;;12.60;;
47758;SDS011;33520;55.122;35.582;2023-09-19T00:57:40;24.10;;;11.88;;
47758;SDS011;33520;55.122;35.582;2023-09-19T01:02:36;19.67;;;10.85;;
47758;SDS011;33520;55.122;35.582;2023-09-19T01:05:03;21.88;;;10.90;;
47758;SDS011;33520;55.122;35.582;2023-09-19T01:07:31;20.90;;;11.70;;
47758;SDS011;33520;55.122;35.582;2023-09-19T01:09:59;23.23;;;12.27;;
47758;SDS011;33520;55.122;35.582;2023-09-19T01:12:33;18.67;;;12.25;;
47758;SDS011;33520;55.122;35.582;2023-09-19T01:15:26;20.05;;;11.80;;
47758;SDS011;33520;55.122;35.582;2023-09-19T01:28:34;21.67;;;12.57;;
47758;SDS011;33520;55.122;35.582;2023-09-19T01:31:20;20.70;;;12.13;;
47758;SDS011;33520;55.122;35.582;2023-09-19T01:33:56;18.67;;;11.77;;
47758;SDS011;33520;55.122;35.582;2023-09-19T01:36:28;21.23;;;12.48;;
47758;SDS011;33520;55.122;35.582;2023-09-19T01:38:55;21.55;;;12.90;;
47758;SDS011;33520;55.122;35.582;2023-09-19T01:41:30;22.80;;;13.18;;
47758;SDS011;33520;55.122;35.582;2023-09-19T01:44:05;22.52;;;13.27;;
47758;SDS011;33520;55.122;35.582;2023-09-19T01:46:38;20.48;;;11.98;;
47758;SDS011;33520;55.122;35.582;2023-09-19T01:49:27;21.50;;;13.77;;
47758;SDS011;33520;55.122;35.582;2023-09-19T01:52:12;22.63;;;13.15;;
47758;SDS011;33520;55.122;35.582;2023-09-19T01:54:50;20.50;;;12.65;;
47758;SDS011;33520;55.122;35.582;2023-09-19T01:57:32;25.52;;;12.85;;
47758;SDS011;33520;55.122;35.582;2023-09-19T02:00:03;26.33;;;13.93;;
47758;SDS011;33520;55.122;35.582;2023-09-19T02:02:43;22.17;;;12.20;;
47758;SDS011;33520;55.122;35.582;2023-09-19T02:05:11;23.50;;;13.43;;
47758;SDS011;33520;55.122;35.582;2023-09-19T02:07:40;24.90;;;13.77;;
47758;SDS011;33520;55.122;35.582;2023-09-19T02:12:36;22.13;;;11.88;;
47758;SDS011;33520;55.122;35.582;2023-09-19T02:15:04;26.98;;;13.23;;
47758;SDS011;33520;55.122;35.582;2023-09-19T02:17:33;22.35;;;12.57;;
47758;SDS011;33520;55.122;35.582;2023-09-19T02:22:26;21.57;;;12.50;;
47758;SDS011;33520;55.122;35.582;2023-09-19T02:24:53;18.85;;;11.70;;
47758;SDS011;33520;55.122;35.582;2023-09-19T02:27:19;19.33;;;11.57;;
47758;SDS011;33520;55.122;35.582;2023-09-19T02:29:46;23.20;;;12.30;;
47758;SDS011;33520;55.122;35.582;2023-09-19T02:34:39;16.90;;;10.23;;
47758;SDS011;33520;55.122;35.582;2023-09-19T02:37:05;18.50;;;11.10;;
47758;SDS011;33520;55.122;35.582;2023-09-19T02:39:33;19.00;;;11.65;;
47758;SDS011;33520;55.122;35.582;2023-09-19T02:44:26;19.98;;;11.88;;
47758;SDS011;33520;55.122;35.582;2023-09-19T02:46:53;23.70;;;12.55;;
47758;SDS011;33520;55.122;35.582;2023-09-19T02:49:19;23.85;;;13.52;;
47758;SDS011;33520;55.122;35.582;2023-09-19T02:51:46;24.27;;;12.93;;
47758;SDS011;33520;55.122;35.582;2023-09-19T02:54:13;20.30;;;13.23;;
47758;SDS011;33520;55.122;35.582;2023-09-19T02:56:40;23.80;;;13.43;;
47758;SDS011;33520;55.122;35.582;2023-09-19T02:59:07;17.63;;;12.15;;
47758;SDS011;33520;55.122;35.582;2023-09-19T03:01:36;19.92;;;11.27;;
47758;SDS011;33520;55.122;35.582;2023-09-19T03:04:04;22.33;;;11.93;;
47758;SDS011;33520;55.122;35.582;2023-09-19T03:06:32;21.45;;;12.30;;
47758;SDS011;33520;55.122;35.582;2023-09-19T03:08:58;12.93;;;7.80;;
47758;SDS011;33520;55.122;35.582;2023-09-19T03:11:26;15.75;;;9.80;;
47758;SDS011;33520;55.122;35.582;2023-09-19T03:13:56;15.38;;;9.68;;
47758;SDS011;33520;55.122;35.582;2023-09-19T03:16:24;14.65;;;9.73;;
47758;SDS011;33520;55.122;35.582;2023-09-19T03:18:54;19.73;;;10.40;;
47758;SDS011;33520;55.122;35.582;2023-09-19T03:21:22;21.10;;;11.68;;
47758;SDS011;33520;55.122;35.582;2023-09-19T03:23:49;23.00;;;11.77;;
47758;SDS011;33520;55.122;35.582;2023-09-19T03:26:15;19.70;;;11.73;;
47758;SDS011;33520;55.122;35.582;2023-09-19T03:28:42;20.48;;;12.50;;
47758;SDS011;33520;55.122;35.582;2023-09-19T03:31:10;21.77;;;12.65;;
47758;SDS011;33520;55.122;35.582;2023-09-19T03:33:36;21.95;;;12.07;;
47758;SDS011;33520;55.122;35.582;2023-09-19T03:36:04;23.80;;;13.25;;
47758;SDS011;33520;55.122;35.582;2023-09-19T03:38:31;22.23;;;12.75;;
47758;SDS011;33520;55.122;35.582;2023-09-19T03:40:58;23.65;;;13.57;;
47758;SDS011;33520;55.122;35.582;2023-09-19T03:43:25;22.67;;;13.57;;
47758;SDS011;33520;55.122;35.582;2023-09-19T03:45:52;21.58;;;12.77;;
47758;SDS011;33520;55.122;35.582;2023-09-19T03:48:20;16.77;;;10.20;;
47758;SDS011;33520;55.122;35.582;2023-09-19T03:50:47;19.65;;;11.30;;
47758;SDS011;33520;55.122;35.582;2023-09-19T03:53:14;19.15;;;11.95;;
47758;SDS011;33520;55.122;35.582;2023-09-19T03:55:41;20.80;;;13.38;;
47758;SDS011;33520;55.122;35.582;2023-09-19T03:58:08;22.05;;;13.15;;
47758;SDS011;33520;55.122;35.582;2023-09-19T04:03:00;24.15;;;13.15;;
47758;SDS011;33520;55.122;35.582;2023-09-19T04:05:31;25.38;;;14.30;;
47758;SDS011;33520;55.122;35.582;2023-09-19T04:07:59;23.63;;;14.30;;
47758;SDS011;33520;55.122;35.582;2023-09-19T04:10:27;25.77;;;13.38;;
47758;SDS011;33520;55.122;35.582;2023-09-19T04:12:55;21.63;;;13.35;;
47758;SDS011;33520;55.122;35.582;2023-09-19T04:15:22;21.45;;;13.57;;
47758;SDS011;33520;55.122;35.582;2023-09-19T04:17:50;20.45;;;13.00;;
47758;SDS011;33520;55.122;35.582;2023-09-19T04:20:17;20.80;;;13.07;;
47758;SDS011;33520;55.122;35.582;2023-09-19T04:22:45;23.58;;;13.23;;
47758;SDS011;33520;55.122;35.582;2023-09-19T04:25:13;21.75;;;13.40;;
47758;SDS011;33520;55.122;35.582;2023-09-19T04:27:39;22.10;;;12.27;;
47758;SDS011;33520;55.122;35.582;2023-09-19T04:30:07;20.02;;;12.73;;
47758;SDS011;33520;55.122;35.582;2023-09-19T04:32:40;20.92;;;13.13;;
47758;SDS011;33520;55.122;35.582;2023-09-19T04:35:10;21.42;;;13.23;;
47758;SDS011;33520;55.122;35.582;2023-09-19T04:37:40;22.23;;;13.85;;
47758;SDS011;33520;55.122;35.582;2023-09-19T04:40:07;21.58;;;12.85;;
47758;SDS011;33520;55.122;35.582;2023-09-19T04:42:40;21.50;;;13.05;;
47758;SDS011;33520;55.122;35.582;2023-09-19T04:45:07;23.35;;;14.15;;
47758;SDS011;33520;55.122;35.582;2023-09-19T04:47:37;22.88;;;12.85;;
47758;SDS011;33520;55.122;35.582;2023-09-19T04:50:05;19.05;;;12.75;;
47758;SDS011;33520;55.122;35.582;2023-09-19T04:52:34;21.65;;;13.48;;
47758;SDS011;33520;55.122;35.582;2023-09-19T04:55:01;20.23;;;13.32;;
47758;SDS011;33520;55.122;35.582;2023-09-19T04:57:27;23.65;;;13.88;;
47758;SDS011;33520;55.122;35.582;2023-09-19T04:59:54;24.85;;;13.20;;
47758;SDS011;33520;55.122;35.582;2023-09-19T05:02:21;18.98;;;12.20;;
47758;SDS011;33520;55.122;35.582;2023-09-19T05:04:48;21.92;;;13.32;;
47758;SDS011;33520;55.122;35.582;2023-09-19T05:09:40;22.40;;;12.55;;
47758;SDS011;33520;55.122;35.582;2023-09-19T05:12:08;20.98;;;12.85;;
47758;SDS011;33520;55.122;35.582;2023-09-19T05:14:36;19.98;;;11.82;;
47758;SDS011;33520;55.122;35.582;2023-09-19T05:17:02;20.23;;;11.85;;
47758;SDS011;33520;55.122;35.582;2023-09-19T05:19:29;20.20;;;12.00;;
47758;SDS011;33520;55.122;35.582;2023-09-19T05:21:56;22.83;;;12.13;;
47758;SDS011;33520;55.122;35.582;2023-09-19T05:24:23;22.35;;;11.98;;
47758;SDS011;33520;55.122;35.582;2023-09-19T05:26:52;20.30;;;12.23;;
47758;SDS011;33520;55.122;35.582;2023-09-19T05:29:18;18.80;;;12.45;;
47758;SDS011;33520;55.122;35.582;2023-09-19T05:31:44;18.60;;;11.88;;
47758;SDS011;33520;55.122;35.582;2023-09-19T05:34:11;20.17;;;12.63;;
47758;SDS011;33520;55.122;35.582;2023-09-19T05:36:37;18.45;;;12.18;;
47758;SDS011;33520;55.122;35.582;2023-09-19T05:39:05;22.73;;;12.90;;
47758;SDS011;33520;55.122;35.582;2023-09-19T05:41:35;20.27;;;12.52;;
47758;SDS011;33520;55.122;35.582;2023-09-19T05:44:05;15.55;;;11.18;;
47758;SDS011;33520;55.122;35.582;2023-09-19T05:46:32;18.52;;;11.70;;
47758;SDS011;33520;55.122;35.582;2023-09-19T05:48:59;19.98;;;12.00;;
47758;SDS011;33520;55.122;35.582;2023-09-19T05:53:54;17.15;;;10.35;;
47758;SDS011;33520;55.122;35.582;2023-09-19T05:56:21;15.88;;;10.27;;
47758;SDS011;33520;55.122;35.582;2023-09-19T05:58:48;20.50;;;11.43;;
47758;SDS011;33520;55.122;35.582;2023-09-19T06:01:15;15.38;;;10.52;;
47758;SDS011;33520;55.122;35.582;2023-09-19T06:03:41;19.38;;;11.52;;
47758;SDS011;33520;55.122;35.582;2023-09-19T06:06:08;18.75;;;11.57;;
47758;SDS011;33520;55.122;35.582;2023-09-19T06:08:35;15.52;;;10.00;;
47758;SDS011;33520;55.122;35.582;2023-09-19T06:11:01;15.35;;;10.18;;
47758;SDS011;33520;55.122;35.582;2023-09-19T06:13:28;15.57;;;9.50;;
47758;SDS011;33520;55.122;35.582;2023-09-19T06:15:55;15.85;;;10.07;;
47758;SDS011;33520;55.122;35.582;2023-09-19T06:18:25;14.50;;;9.77;;
47758;SDS011;33520;55.122;35.582;2023-09-19T06:20:53;15.88;;;9.52;;
47758;SDS011;33520;55.122;35.582;2023-09-19T06:23:20;17.40;;;9.27;;
47758;SDS011;33520;55.122;35.582;2023-09-19T06:25:47;14.27;;;10.00;;
47758;SDS011;33520;55.122;35.582;2023-09-19T06:28:13;15.00;;;8.88;;
47758;SDS011;33520;55.122;35.582;2023-09-19T06:30:42;15.55;;;8.93;;
47758;SDS011;33520;55.122;35.582;2023-09-19T06:33:09;15.77;;;9.18;;
47758;SDS011;33520;55.122;35.582;2023-09-19T06:35:38;13.65;;;9.18;;
47758;SDS011;33520;55.122;35.582;2023-09-19T06:40:31;11.98;;;8.10;;
47758;SDS011;33520;55.122;35.582;2023-09-19T06:43:01;11.10;;;8.05;;
47758;SDS011;33520;55.122;35.582;2023-09-19T06:45:30;11.85;;;8.07;;
47758;SDS011;33520;55.122;35.582;2023-09-19T06:47:57;14.50;;;8.93;;
47758;SDS011;33520;55.122;35.582;2023-09-19T06:50:26;13.57;;;7.88;;
47758;SDS011;33520;55.122;35.582;2023-09-19T06:52:53;15.43;;;8.52;;
47758;SDS011;33520;55.122;35.582;2023-09-19T06:55:21;11.27;;;7.78;;
47758;SDS011;33520;55.122;35.582;2023-09-19T06:57:51;14.10;;;7.35;;
47758;SDS011;33520;55.122;35.582;2023-09-19T07:00:20;11.30;;;7.90;;
47758;SDS011;33520;55.122;35.582;2023-09-19T07:05:27;11.98;;;7.50;;
47758;SDS011;33520;55.122;35.582;2023-09-19T07:07:53;10.75;;;7.00;;
47758;SDS011;33520;55.122;35.582;2023-09-19T07:10:26;10.65;;;7.00;;
47758;SDS011;33520;55.122;35.582;2023-09-19T07:13:00;10.52;;;7.40;;
47758;SDS011;33520;55.122;35.582;2023-09-19T07:15:29;8.93;;;6.85;;
47758;SDS011;33520;55.122;35.582;2023-09-19T07:17:59;12.93;;;7.40;;
47758;SDS011;33520;55.122;35.582;2023-09-19T07:20:26;9.40;;;6.63;;
47758;SDS011;33520;55.122;35.582;2023-09-19T07:22:55;10.65;;;6.35;;
47758;SDS011;33520;55.122;35.582;2023-09-19T07:27:47;11.15;;;6.68;;
47758;SDS011;33520;55.122;35.582;2023-09-19T07:32:42;12.05;;;6.97;;
47758;SDS011;33520;55.122;35.582;2023-09-19T07:37:34;14.07;;;6.78;;
47758;SDS011;33520;55.122;35.582;2023-09-19T07:40:02;10.45;;;6.88;;
47758;SDS011;33520;55.122;35.582;2023-09-19T07:42:37;10.40;;;6.32;;
47758;SDS011;33520;55.122;35.582;2023-09-19T07:45:07;8.32;;;6.25;;
47758;SDS011;33520;55.122;35.582;2023-09-19T07:47:34;11.32;;;6.43;;
47758;SDS011;33520;55.122;35.582;2023-09-19T07:50:01;9.25;;;5.93;;
47758;SDS011;33520;55.122;35.582;2023-09-19T07:52:28;9.43;;;5.90;;
47758;SDS011;33520;55.122;35.582;2023-09-19T07:54:55;8.55;;;6.05;;
47758;SDS011;33520;55.122;35.582;2023-09-19T07:57:23;9.27;;;5.15;;
47758;SDS011;33520;55.122;35.582;2023-09-19T07:59:50;7.93;;;5.80;;
47758;SDS011;33520;55.122;35.582;2023-09-19T08:02:17;8.73;;;5.30;;
47758;SDS011;33520;55.122;35.582;2023-09-19T08:04:44;9.15;;;5.32;;
47758;SDS011;33520;55.122;35.582;2023-09-19T08:07:14;7.07;;;5.18;;
47758;SDS011;33520;55.122;35.582;2023-09-19T08:09:41;8.88;;;4.95;;
47758;SDS011;33520;55.122;35.582;2023-09-19T08:12:12;6.38;;;4.80;;
47758;SDS011;33520;55.122;35.582;2023-09-19T08:14:38;8.18;;;5.00;;
47758;SDS011;33520;55.122;35.582;2023-09-19T08:17:07;6.00;;;4.55;;
47758;SDS011;33520;55.122;35.582;2023-09-19T08:19:36;7.15;;;4.60;;
47758;SDS011;33520;55.122;35.582;2023-09-19T08:22:08;8.23;;;5.13;;
47758;SDS011;33520;55.122;35.582;2023-09-19T08:24:36;6.38;;;4.88;;
47758;SDS011;33520;55.122;35.582;2023-09-19T08:27:04;7.60;;;5.10;;
47758;SDS011;33520;55.122;35.582;2023-09-19T08:29:34;8.18;;;4.80;;
47758;SDS011;33520;55.122;35.582;2023-09-19T08:32:01;6.63;;;4.47;;
47758;SDS011;33520;55.122;35.582;2023-09-19T08:34:28;9.13;;;4.47;;
47758;SDS011;33520;55.122;35.582;2023-09-19T08:36:58;5.40;;;4.22;;
47758;SDS011;33520;55.122;35.582;2023-09-19T08:39:26;8.38;;;5.03;;
47758;SDS011;33520;55.122;35.582;2023-09-19T08:41:59;5.60;;;4.32;;
47758;SDS011;33520;55.122;35.582;2023-09-19T08:44:27;8.90;;;4.30;;
47758;SDS011;33520;55.122;35.582;2023-09-19T08:47:02;7.85;;;4.95;;
47758;SDS011;33520;55.122;35.582;2023-09-19T08:49:54;7.47;;;4.38;;
47758;SDS011;33520;55.122;35.582;2023-09-19T08:52:27;6.80;;;4.13;;
47758;SDS011;33520;55.122;35.582;2023-09-19T08:54:59;8.40;;;4.97;;
47758;SDS011;33520;55.122;35.582;2023-09-19T08:57:33;7.70;;;4.10;;
47758;SDS011;33520;55.122;35.582;2023-09-19T09:00:02;7.82;;;4.35;;
47758;SDS011;33520;55.122;35.582;2023-09-19T09:02:37;9.23;;;4.00;;
47758;SDS011;33520;55.122;35.582;2023-09-19T09:05:10;5.93;;;4.38;;
47758;SDS011;33520;55.122;35.582;2023-09-19T09:07:38;5.13;;;3.78;;
47758;SDS011;33520;55.122;35.582;2023-09-19T09:10:07;7.75;;;4.05;;
47758;SDS011;33520;55.122;35.582;2023-09-19T09:12:34;8.00;;;4.25;;
47758;SDS011;33520;55.122;35.582;2023-09-19T09:15:05;6.78;;;4.13;;
47758;SDS011;33520;55.122;35.582;2023-09-19T09:17:34;7.63;;;4.15;;
47758;SDS011;33520;55.122;35.582;2023-09-19T09:20:01;6.18;;;4.40;;
47758;SDS011;33520;55.122;35.582;2023-09-19T09:22:27;7.68;;;4.18;;
47758;SDS011;33520;55.122;35.582;2023-09-19T09:24:55;6.75;;;4.40;;
47758;SDS011;33520;55.122;35.582;2023-09-19T09:27:30;9.10;;;4.68;;
47758;SDS011;33520;55.122;35.582;2023-09-19T09:29:59;6.60;;;4.20;;
47758;SDS011;33520;55.122;35.582;2023-09-19T09:32:28;6.43;;;4.72;;
47758;SDS011;33520;55.122;35.582;2023-09-19T09:34:57;9.23;;;4.28;;
47758;SDS011;33520;55.122;35.582;2023-09-19T09:37:25;7.07;;;4.07;;
47758;SDS011;33520;55.122;35.582;2023-09-19T09:40:02;7.40;;;4.28;;
47758;SDS011;33520;55.122;35.582;2023-09-19T09:42:41;5.75;;;4.32;;
47758;SDS011;33520;55.122;35.582;2023-09-19T09:45:20;8.20;;;4.40;;
47758;SDS011;33520;55.122;35.582;2023-09-19T09:48:07;7.38;;;4.55;;
47758;SDS011;33520;55.122;35.582;2023-09-19T09:50:47;8.65;;;4.40;;
47758;SDS011;33520;55.122;35.582;2023-09-19T09:53:23;7.18;;;4.25;;
47758;SDS011;33520;55.122;35.582;2023-09-19T09:55:57;6.13;;;4.40;;
47758;SDS011;33520;55.122;35.582;2023-09-19T09:58:24;7.78;;;4.90;;
47758;SDS011;33520;55.122;35.582;2023-09-19T10:00:55;5.47;;;4.05;;
47758;SDS011;33520;55.122;35.582;2023-09-19T10:03:42;7.20;;;4.47;;
47758;SDS011;33520;55.122;35.582;2023-09-19T10:06:14;8.05;;;4.65;;
47758;SDS011;33520;55.122;35.582;2023-09-19T10:08:59;5.07;;;3.92;;
47758;SDS011;33520;55.122;35.582;2023-09-19T10:12:00;7.20;;;4.35;;
47758;SDS011;33520;55.122;35.582;2023-09-19T10:14:30;7.28;;;3.63;;
47758;SDS011;33520;55.122;35.582;2023-09-19T10:16:59;8.48;;;4.32;;
47758;SDS011;33520;55.122;35.582;2023-09-19T10:19:29;5.25;;;4.05;;
47758;SDS011;33520;55.122;35.582;2023-09-19T10:22:01;6.85;;;4.22;;
47758;SDS011;33520;55.122;35.582;2023-09-19T10:24:28;6.40;;;4.75;;
47758;SDS011;33520;55.122;35.582;2023-09-19T10:26:56;8.80;;;4.40;;
47758;SDS011;33520;55.122;35.582;2023-09-19T10:29:23;7.53;;;4.50;;
47758;SDS011;33520;55.122;35.582;2023-09-19T10:31:52;14.60;;;8.60;;
47758;SDS011;33520;55.122;35.582;2023-09-19T10:34:19;11.23;;;7.15;;
47758;SDS011;33520;55.122;35.582;2023-09-19T10:36:46;11.82;;;5.40;;
47758;SDS011;33520;55.122;35.582;2023-09-19T10:39:16;48.65;;;31.20;;
47758;SDS011;33520;55.122;35.582;2023-09-19T10:41:55;24.38;;;17.67;;
47758;SDS011;33520;55.122;35.582;2023-09-19T10:44:24;7.18;;;5.25;;
47758;SDS011;33520;55.122;35.582;2023-09-19T10:46:51;8.45;;;4.35;;
47758;SDS011;33520;55.122;35.582;2023-09-19T10:49:19;6.90;;;5.28;;
47758;SDS011;33520;55.122;35.582;2023-09-19T10:51:47;5.95;;;4.07;;
47758;SDS011;33520;55.122;35.582;2023-09-19T10:54:19;9.98;;;4.38;;
47758;SDS011;33520;55.122;35.582;2023-09-19T10:56:52;6.75;;;4.35;;
47758;SDS011;33520;55.122;35.582;2023-09-19T10:59:19;8.63;;;4.57;;
47758;SDS011;33520;55.122;35.582;2023-09-19T11:01:47;5.57;;;4.03;;
47758;SDS011;33520;55.122;35.582;2023-09-19T11:04:29;5.50;;;3.65;;
47758;SDS011;33520;55.122;35.582;2023-09-19T11:07:03;5.32;;;3.92;;
47758;SDS011;33520;55.122;35.582;2023-09-19T11:14:56;8.43;;;4.50;;
47758;SDS011;33520;55.122;35.582;2023-09-19T11:30:33;9.95;;;6.93;;
47758;SDS011;33520;55.122;35.582;2023-09-19T11:33:17;10.48;;;7.60;;
47758;SDS011;33520;55.122;35.582;2023-09-19T11:46:28;6.68;;;4.60;;
47758;SDS011;33520;55.122;35.582;2023-09-19T11:49:06;6.85;;;5.10;;
47758;SDS011;33520;55.122;35.582;2023-09-19T11:51:42;9.00;;;4.80;;
47758;SDS011;33520;55.122;35.582;2023-09-19T11:54:10;8.18;;;4.20;;
47758;SDS011;33520;55.122;35.582;2023-09-19T11:56:54;8.63;;;4.47;;
47758;SDS011;33520;55.122;35.582;2023-09-19T11:59:21;7.18;;;4.20;;
47758;SDS011;33520;55.122;35.582;2023-09-19T12:01:52;5.03;;;3.72;;
47758;SDS011;33520;55.122;35.582;2023-09-19T12:04:35;5.15;;;3.95;;
47758;SDS011;33520;55.122;35.582;2023-09-19T12:09:44;6.63;;;4.50;;
47758;SDS011;33520;55.122;35.582;2023-09-19T12:12:33;7.93;;;4.75;;
47758;SDS011;33520;55.122;35.582;2023-09-19T12:14:59;9.15;;;4.35;;
47758;SDS011;33520;55.122;35.582;2023-09-19T12:20:06;6.80;;;4.47;;
47758;SDS011;33520;55.122;35.582;2023-09-19T12:22:39;6.32;;;4.55;;
47758;SDS011;33520;55.122;35.582;2023-09-19T12:25:09;6.68;;;4.40;;
47758;SDS011;33520;55.122;35.582;2023-09-19T12:27:46;9.25;;;4.63;;
47758;SDS011;33520;55.122;35.582;2023-09-19T12:30:13;9.95;;;5.30;;
47758;SDS011;33520;55.122;35.582;2023-09-19T12:32:41;7.32;;;5.13;;
47758;SDS011;33520;55.122;35.582;2023-09-19T12:35:07;6.90;;;4.65;;
47758;SDS011;33520;55.122;35.582;2023-09-19T12:37:36;8.70;;;5.30;;
47758;SDS011;33520;55.122;35.582;2023-09-19T12:40:04;8.10;;;5.25;;
47758;SDS011;33520;55.122;35.582;2023-09-19T12:42:53;7.30;;;5.03;;
47758;SDS011;33520;55.122;35.582;2023-09-19T12:45:21;12.00;;;5.80;;
47758;SDS011;33520;55.122;35.582;2023-09-19T12:56:09;6.43;;;4.68;;
47758;SDS011;33520;55.122;35.582;2023-09-19T12:58:53;10.88;;;5.60;;
47758;SDS011;33520;55.122;35.582;2023-09-19T13:01:21;7.05;;;4.35;;
47758;SDS011;33520;55.122;35.582;2023-09-19T13:06:41;7.07;;;4.93;;
47758;SDS011;33520;55.122;35.582;2023-09-19T13:09:10;7.75;;;5.25;;
47758;SDS011;33520;55.122;35.582;2023-09-19T13:11:37;7.47;;;4.80;;
47758;SDS011;33520;55.122;35.582;2023-09-19T13:14:19;6.93;;;5.18;;
47758;SDS011;33520;55.122;35.582;2023-09-19T13:17:02;6.93;;;5.25;;
47758;SDS011;33520;55.122;35.582;2023-09-19T13:19:40;7.80;;;5.32;;
47758;SDS011;33520;55.122;35.582;2023-09-19T13:22:41;5.80;;;4.18;;
47758;SDS011;33520;55.122;35.582;2023-09-19T13:25:17;5.40;;;4.22;;
47758;SDS011;33520;55.122;35.582;2023-09-19T13:27:48;7.68;;;4.32;;
47758;SDS011;33520;55.122;35.582;2023-09-19T13:30:20;9.85;;;5.45;;
47758;SDS011;33520;55.122;35.582;2023-09-19T13:32:48;7.07;;;4.53;;
47758;SDS011;33520;55.122;35.582;2023-09-19T13:35:15;5.93;;;4.03;;
47758;SDS011;33520;55.122;35.582;2023-09-19T13:37:42;7.80;;;4.43;;
47758;SDS011;33520;55.122;35.582;2023-09-19T13:40:09;10.27;;;4.78;;
47758;SDS011;33520;55.122;35.582;2023-09-19T13:42:37;8.35;;;5.00;;
47758;SDS011;33520;55.122;35.582;2023-09-19T13:45:04;6.90;;;4.93;;
47758;SDS011;33520;55.122;35.582;2023-09-19T13:47:32;9.57;;;4.97;;
47758;SDS011;33520;55.122;35.582;2023-09-19T13:50:01;7.50;;;4.05;;
47758;SDS011;33520;55.122;35.582;2023-09-19T13:52:30;6.78;;;4.45;;
47758;SDS011;33520;55.122;35.582;2023-09-19T13:54:57;9.85;;;5.28;;
47758;SDS011;33520;55.122;35.582;2023-09-19T13:57:24;9.32;;;4.90;;
47758;SDS011;33520;55.122;35.582;2023-09-19T13:59:51;8.63;;;4.47;;
47758;SDS011;33520;55.122;35.582;2023-09-19T14:02:23;8.10;;;4.70;;
47758;SDS011;33520;55.122;35.582;2023-09-19T14:04:53;6.32;;;4.47;;
47758;SDS011;33520;55.122;35.582;2023-09-19T14:07:20;7.55;;;4.32;;
47758;SDS011;33520;55.122;35.582;2023-09-19T14:09:47;8.57;;;5.60;;
47758;SDS011;33520;55.122;35.582;2023-09-19T14:12:15;10.00;;;5.70;;
47758;SDS011;33520;55.122;35.582;2023-09-19T14:14:41;9.85;;;5.53;;
47758;SDS011;33520;55.122;35.582;2023-09-19T14:17:08;8.25;;;5.40;;
47758;SDS011;33520;55.122;35.582;2023-09-19T14:19:35;11.98;;;4.60;;
47758;SDS011;33520;55.122;35.582;2023-09-19T14:22:02;10.25;;;5.70;;
47758;SDS011;33520;55.122;35.582;2023-09-19T14:24:33;8.40;;;4.93;;
47758;SDS011;33520;55.122;35.582;2023-09-19T14:27:00;9.38;;;5.82;;
47758;SDS011;33520;55.122;35.582;2023-09-19T14:29:26;8.32;;;6.10;;
47758;SDS011;33520;55.122;35.582;2023-09-19T14:31:54;14.48;;;8.35;;
47758;SDS011;33520;55.122;35.582;2023-09-19T14:34:23;10.00;;;7.20;;
47758;SDS011;33520;55.122;35.582;2023-09-19T14:36:49;10.13;;;6.70;;
47758;SDS011;33520;55.122;35.582;2023-09-19T14:39:15;8.48;;;6.03;;
47758;SDS011;33520;55.122;35.582;2023-09-19T14:41:42;13.45;;;6.35;;
47758;SDS011;33520;55.122;35.582;2023-09-19T14:44:08;10.60;;;6.25;;
47758;SDS011;33520;55.122;35.582;2023-09-19T14:46:36;9.60;;;5.50;;
47758;SDS011;33520;55.122;35.582;2023-09-19T14:49:02;8.55;;;5.72;;
47758;SDS011;33520;55.122;35.582;2023-09-19T14:51:30;9.13;;;5.80;;
47758;SDS011;33520;55.122;35.582;2023-09-19T14:53:57;13.15;;;6.35;;
47758;SDS011;33520;55.122;35.582;2023-09-19T14:56:23;8.35;;;5.68;;
47758;SDS011;33520;55.122;35.582;2023-09-19T14:58:51;11.63;;;6.38;;
47758;SDS011;33520;55.122;35.582;2023-09-19T15:01:18;9.75;;;5.10;;
47758;SDS011;33520;55.122;35.582;2023-09-19T15:03:44;10.18;;;5.78;;
47758;SDS011;33520;55.122;35.582;2023-09-19T15:06:12;11.70;;;6.10;;
47758;SDS011;33520;55.122;35.582;2023-09-19T15:08:40;9.52;;;6.00;;
47758;SDS011;33520;55.122;35.582;2023-09-19T15:11:11;12.95;;;6.63;;
47758;SDS011;33520;55.122;35.582;2023-09-19T15:13:38;9.73;;;5.43;;
47758;SDS011;33520;55.122;35.582;2023-09-19T15:16:07;8.82;;;5.25;;
47758;SDS011;33520;55.122;35.582;2023-09-19T15:18:38;11.95;;;5.43;;
47758;SDS011;33520;55.122;35.582;2023-09-19T15:21:06;10.82;;;5.82;;
47758;SDS011;33520;55.122;35.582;2023-09-19T15:23:36;9.65;;;5.40;;
47758;SDS011;33520;55.122;35.582;2023-09-19T15:26:04;8.55;;;5.63;;
47758;SDS011;33520;55.122;35.582;2023-09-19T15:28:31;8.15;;;5.50;;
47758;SDS011;33520;55.122;35.582;2023-09-19T15:31:02;10.02;;;6.18;;
47758;SDS011;33520;55.122;35.582;2023-09-19T15:33:29;7.80;;;4.93;;
47758;SDS011;33520;55.122;35.582;2023-09-19T15:36:06;10.45;;;5.25;;
47758;SDS011;33520;55.122;35.582;2023-09-19T15:41:19;7.45;;;5.50;;
47758;SDS011;33520;55.122;35.582;2023-09-19T15:43:46;8.65;;;4.97;;
47758;SDS011;33520;55.122;35.582;2023-09-19T15:48:40;11.18;;;5.10;;
47758;SDS011;33520;55.122;35.582;2023-09-19T15:51:07;9.77;;;5.40;;
47758;SDS011;33520;55.122;35.582;2023-09-19T15:53:44;12.15;;;6.03;;
47758;SDS011;33520;55.122;35.582;2023-09-19T15:56:15;9.48;;;5.85;;
47758;SDS011;33520;55.122;35.582;2023-09-19T15:58:47;11.55;;;5.65;;
47758;SDS011;33520;55.122;35.582;2023-09-19T16:01:14;11.50;;;5.28;;
47758;SDS011;33520;55.122;35.582;2023-09-19T16:03:47;11.80;;;5.75;;
47758;SDS011;33520;55.122;35.582;2023-09-19T16:06:15;11.60;;;5.90;;
47758;SDS011;33520;55.122;35.582;2023-09-19T16:08:44;9.15;;;6.05;;
47758;SDS011;33520;55.122;35.582;2023-09-19T16:11:12;13.85;;;5.80;;
47758;SDS011;33520;55.122;35.582;2023-09-19T16:13:39;9.60;;;6.32;;